^^
Grace C. Lehan Memorial Weather Station Historical Data
Daily Summary for December 05, 2021 Units:  English    Metric   Both
Daily Weekly Monthly Yearly
  High: Low: Average:
Temperature: 47.9 °F 33.2 °F 39.7 °F
Dew Point: 30.8 °F 23.7 °F 27.4 °F
Humidity: 89% 40% 63%
Wind Speed: 3.1mph 0mph 0.2mph
Wind Gust: 10mph - -
Wind- - West
Pressure: 30.39 in 30.15 in -
Precipitation: 0.00 in    
 
 
Tabular Data for December 05, 2021
Time Temperature Dew Point Pressure Wind Wind Speed Wind Gust Humidity Rainfall Rate (Hourly) solar
00:04 33.7 °F 30.3 °F 30.15 in Calm   2 mph 87% 0.00 in 0 W/m2
00:09 33.6 °F 30.2 °F 30.15 in Calm     87% 0.00 in 0 W/m2
00:14 33.6 °F 30.3 °F 30.16 in NW 0.2 mph 2 mph 87.5% 0.00 in 0 W/m2
00:19 33.7 °F 30.5 °F 30.16 in Calm   2 mph 88% 0.00 in 0 W/m2
00:24 33.9 °F 30.7 °F 30.16 in NW 0.1 mph 2 mph 88% 0.00 in 0 W/m2
00:29 33.9 °F 30.7 °F 30.16 in Calm   2 mph 88% 0.00 in 0 W/m2
00:34 33.9 °F 30.7 °F 30.16 in Calm   2 mph 88% 0.00 in 0 W/m2
00:39 33.8 °F 30.6 °F 30.16 in Calm     88% 0.00 in 0 W/m2
00:44 33.7 °F 30.5 °F 30.15 in Calm     88% 0.00 in 0 W/m2
00:49 33.5 °F 30.3 °F 30.15 in Calm     88% 0.00 in 0 W/m2
00:54 33.3 °F 30.2 °F 30.16 in Calm     88% 0.00 in 0 W/m2
00:59 33.2 °F 30.1 °F 30.16 in Calm     88% 0.00 in 0 W/m2
01:04 33.2 °F 30.3 °F 30.16 in Calm     88.9% 0.00 in 0 W/m2
01:09 33.3 °F 30.4 °F 30.16 in Calm     89% 0.00 in 0 W/m2
01:14 33.3 °F 30.4 °F 30.16 in Calm     89% 0.00 in 0 W/m2
01:19 33.3 °F 30.4 °F 30.17 in Calm     89% 0.00 in 0 W/m2
01:24 33.3 °F 30.4 °F 30.17 in Calm     89% 0.00 in 0 W/m2
01:29 33.3 °F 30.4 °F 30.17 in Calm     89% 0.00 in 0 W/m2
01:34 33.4 °F 30.5 °F 30.17 in Calm     89% 0.00 in 0 W/m2
01:39 33.5 °F 30.5 °F 30.18 in Calm     88.6% 0.00 in 0 W/m2
01:44 33.7 °F 30.5 °F 30.18 in NW 0.1 mph 3 mph 88% 0.00 in 0 W/m2
01:49 33.8 °F 30.5 °F 30.18 in Calm   3 mph 87.3% 0.00 in 0 W/m2
01:54 33.9 °F 30.3 °F 30.18 in Calm   3 mph 86.7% 0.00 in 0 W/m2
01:59 33.8 °F 30.8 °F 30.19 in Calm   3 mph 88.6% 0.00 in 0 W/m2
02:04 33.8 °F 30.2 °F 30.19 in Calm   3 mph 86.6% 0.00 in 0 W/m2
02:09 33.8 °F 30.1 °F 30.20 in Calm     86% 0.00 in 0 W/m2
02:14 33.7 °F 30 °F 30.20 in Calm     86% 0.00 in 0 W/m2
02:19 33.6 °F 29.8 °F 30.20 in Calm     86% 0.00 in 0 W/m2
02:24 33.5 °F 29.7 °F 30.20 in Calm     86% 0.00 in 0 W/m2
02:29 33.4 °F 29.7 °F 30.21 in Calm     86% 0.00 in 0 W/m2
02:34 33.4 °F 29.7 °F 30.22 in Calm     86% 0.00 in 0 W/m2
02:39 33.4 °F 29.7 °F 30.22 in Calm   1 mph 86% 0.00 in 0 W/m2
02:44 33.5 °F 29.7 °F 30.22 in Calm   1 mph 85.8% 0.00 in 0 W/m2
02:49 33.5 °F 29.5 °F 30.23 in NW 0.2 mph 3 mph 85% 0.00 in 0 W/m2
02:54 33.6 °F 29.6 °F 30.22 in Calm   3 mph 85% 0.00 in 0 W/m2
02:59 33.7 °F 29.5 °F 30.22 in Calm   3 mph 84.7% 0.00 in 0 W/m2
03:04 33.7 °F 29.4 °F 30.22 in NW 0.1 mph 3 mph 84% 0.00 in 0 W/m2
03:09 33.7 °F 29.4 °F 30.23 in Calm   2 mph 84% 0.00 in 0 W/m2
03:14 33.8 °F 29.3 °F 30.23 in NW 0.1 mph 2 mph 83.4% 0.00 in 0 W/m2
03:19 33.9 °F 29.3 °F 30.23 in NW 0.1 mph 2 mph 83% 0.00 in 0 W/m2
03:24 33.9 °F 29.3 °F 30.23 in Calm   2 mph 83% 0.00 in 0 W/m2
03:29 34 °F 29.4 °F 30.23 in Calm   2 mph 83% 0.00 in 0 W/m2
03:34 34 °F 29.1 °F 30.23 in NW 0.1 mph 3 mph 82% 0.00 in 0 W/m2
03:39 34 °F 29.1 °F 30.23 in NW 0.6 mph 4 mph 81.9% 0.00 in 0 W/m2
03:44 34.2 °F 29 °F 30.23 in NW 0.1 mph 4 mph 81% 0.00 in 0 W/m2
03:49 34.3 °F 28.8 °F 30.24 in Calm   4 mph 80.1% 0.00 in 0 W/m2
03:54 34.5 °F 28.7 °F 30.24 in Calm   4 mph 79.1% 0.00 in 0 W/m2
03:59 34.7 °F 28.6 °F 30.24 in Calm   4 mph 78.1% 0.00 in 0 W/m2
04:00 34.8 °F 28.3 °F 30.23 in Calm   4 mph 77% 0.00 in 0 W/m2
04:09 35 °F 28.4 °F 30.24 in Calm     76.6% 0.00 in 0 W/m2
04:14 35.1 °F 28.3 °F 30.24 in Calm     76% 0.00 in 0 W/m2
04:19 35.1 °F 28.3 °F 30.24 in Calm     76% 0.00 in 0 W/m2
04:24 35.1 °F 28.3 °F 30.24 in Calm     76% 0.00 in 0 W/m2
04:29 35 °F 28.1 °F 30.23 in Calm     75.5% 0.00 in 0 W/m2
04:34 35 °F 28.2 °F 30.24 in Calm     76% 0.00 in 0 W/m2
04:39 34.9 °F 28 °F 30.25 in Calm     75.5% 0.00 in 0 W/m2
04:44 34.9 °F 28.1 °F 30.25 in Calm     76% 0.00 in 0 W/m2
04:49 34.9 °F 28.1 °F 30.25 in Calm     76% 0.00 in 0 W/m2
04:54 34.8 °F 28 °F 30.25 in Calm     76% 0.00 in 0 W/m2
04:59 34.7 °F 28 °F 30.25 in Calm     76.3% 0.00 in 0 W/m2
05:04 34.6 °F 28.3 °F 30.26 in Calm     77.5% 0.00 in 0 W/m2
05:09 34.3 °F 28.4 °F 30.25 in Calm     78.7% 0.00 in 0 W/m2
05:14 34.1 °F 28.1 °F 30.26 in Calm     78.5% 0.00 in 0 W/m2
05:19 34 °F 27.9 °F 30.26 in WNW 0.8 mph 5 mph 78% 0.00 in 0 W/m2
05:24 34 °F 28.1 °F 30.27 in WNW 0.5 mph 5 mph 78.7% 0.00 in 0 W/m2
05:29 34 °F 28 °F 30.27 in WNW 0.1 mph 5 mph 78.3% 0.00 in 0 W/m2
05:34 34 °F 28 °F 30.27 in Calm   5 mph 78.3% 0.00 in 0 W/m2
05:39 34.1 °F 28 °F 30.28 in Calm     78% 0.00 in 0 W/m2
05:44 34.1 °F 27.8 °F 30.28 in Calm     77.4% 0.00 in 0 W/m2
05:49 34.2 °F 28 °F 30.28 in Calm     78% 0.00 in 0 W/m2
05:54 34.1 °F 28 °F 30.28 in Calm     78.2% 0.00 in 0 W/m2
05:59 34.1 °F 28 °F 30.29 in Calm     78% 0.00 in 0 W/m2
06:04 34 °F 28.2 °F 30.29 in Calm     79% 0.00 in 0 W/m2
06:09 33.9 °F 28.2 °F 30.29 in Calm     79.4% 0.00 in 0 W/m2
06:14 33.8 °F 28.3 °F 30.29 in Calm     80% 0.00 in 0 W/m2
06:19 33.8 °F 28.3 °F 30.29 in Calm     80% 0.00 in 0 W/m2
06:24 33.7 °F 28.1 °F 30.29 in Calm     79.7% 0.00 in 0 W/m2
06:29 33.8 °F 27.8 °F 30.29 in Calm     78.6% 0.00 in 0 W/m2
06:34 33.8 °F 27.7 °F 30.29 in Calm     78% 0.00 in 0 W/m2
06:39 33.9 °F 28 °F 30.30 in Calm     78.6% 0.00 in 0 W/m2
06:44 33.9 °F 28.1 °F 30.30 in Calm     79% 0.00 in 0 W/m2
06:49 33.9 °F 28.1 °F 30.30 in Calm     79% 0.00 in 0 W/m2
06:54 33.8 °F 28 °F 30.31 in Calm     79% 0.00 in 0 W/m2
06:59 33.8 °F 27.8 °F 30.31 in Calm     78.3% 0.00 in 0 W/m2
07:04 33.8 °F 27.9 °F 30.31 in Calm     78.7% 0.00 in 5 W/m2
07:09 33.8 °F 28.1 °F 30.32 in Calm     79.3% 0.00 in 11 W/m2
07:14 33.8 °F 29.2 °F 30.32 in Calm   1 mph 83% 0.00 in 16 W/m2
07:19 33.8 °F 28.4 °F 30.32 in Calm   1 mph 80.2% 0.00 in 21 W/m2
07:24 33.8 °F 27.8 °F 30.33 in Calm   1 mph 78.3% 0.00 in 28 W/m2
07:29 33.8 °F 27.6 °F 30.33 in Calm   1 mph 77.6% 0.00 in 39 W/m2
07:34 34 °F 27.5 °F 30.33 in Calm   1 mph 76.8% 0.00 in 62 W/m2
07:39 34.3 °F 27.6 °F 30.33 in Calm     76.3% 0.00 in 84 W/m2
07:44 34.8 °F 28.3 °F 30.33 in Calm     77% 0.00 in 91 W/m2
07:49 35.5 °F 28.8 °F 30.33 in Calm     76.2% 0.00 in 113 W/m2
07:54 36.3 °F 29.3 °F 30.33 in Calm     75.4% 0.00 in 113 W/m2
07:59 36.9 °F 29.2 °F 30.34 in Calm     73.3% 0.00 in 84 W/m2
08:00 37.2 °F 29.4 °F 30.34 in Calm     73% 0.00 in 72 W/m2
08:09 37.9 °F 29.5 °F 30.34 in Calm     71.5% 0.00 in 77 W/m2
08:14 38.1 °F 29.2 °F 30.34 in Calm     69.9% 0.00 in 79 W/m2
08:19 38.3 °F 28.7 °F 30.34 in Calm     68.2% 0.00 in 98 W/m2
08:24 38.5 °F 28.9 °F 30.35 in Calm     68% 0.00 in 86 W/m2
08:29 38.8 °F 28.9 °F 30.35 in Calm     67.4% 0.00 in 83 W/m2
08:34 38.9 °F 28.4 °F 30.35 in Calm     65.7% 0.00 in 148 W/m2
08:39 39.1 °F 28.7 °F 30.35 in Calm     65.9% 0.00 in 199 W/m2
08:44 39.6 °F 29.2 °F 30.36 in Calm     66% 0.00 in 250 W/m2
08:49 40.3 °F 29.3 °F 30.36 in WNW 0.5 mph 4 mph 64.6% 0.00 in 232 W/m2
08:54 40.8 °F 29 °F 30.36 in Calm   4 mph 62.4% 0.00 in 105 W/m2
08:59 41.1 °F 29.6 °F 30.37 in WNW 0.1 mph 4 mph 63.3% 0.00 in 127 W/m2
09:04 41.3 °F 29.2 °F 30.37 in WNW 0.8 mph 4 mph 61.8% 0.00 in 153 W/m2
09:09 41.3 °F 28.8 °F 30.38 in WNW 0.4 mph 3 mph 60.7% 0.00 in 151 W/m2
09:14 41.3 °F 28.2 °F 30.38 in WNW 0.5 mph 4 mph 59.3% 0.00 in 171 W/m2
09:19 41.4 °F 28.1 °F 30.38 in WNW 0.6 mph 5 mph 58.8% 0.00 in 223 W/m2
09:24 41.8 °F 27.7 °F 30.38 in WNW 0.3 mph 5 mph 57.2% 0.00 in 218 W/m2
09:29 42.2 °F 27.9 °F 30.38 in WNW 1.4 mph 5 mph 56.6% 0.00 in 158 W/m2
09:34 42.5 °F 27 °F 30.38 in WNW 1.9 mph 5 mph 54% 0.00 in 158 W/m2
09:39 42.7 °F 27.2 °F 30.38 in West 0.5 mph 5 mph 54% 0.00 in 148 W/m2
09:44 42.9 °F 27.5 °F 30.39 in West 0.8 mph 5 mph 54.2% 0.00 in 156 W/m2
09:49 43 °F 27 °F 30.39 in West 1.9 mph 6 mph 52.8% 0.00 in 178 W/m2
09:54 43.2 °F 27.5 °F 30.39 in West 1.9 mph 6 mph 53.6% 0.00 in 193 W/m2
09:59 43.4 °F 27.1 °F 30.38 in NW 3.1 mph 10 mph 52.4% 0.00 in 199 W/m2
10:04 43.5 °F 26.7 °F 30.38 in WNW 2.5 mph 10 mph 51.2% 0.00 in 258 W/m2
10:09 43.7 °F 27.2 °F 30.38 in WNW 1.1 mph 5 mph 51.8% 0.00 in 364 W/m2
10:14 44.3 °F 27.1 °F 30.39 in WNW 2.6 mph 7 mph 50.5% 0.00 in 404 W/m2
10:19 44.8 °F 27.5 °F 30.39 in WNW 0.3 mph 7 mph 50.4% 0.00 in 438 W/m2
10:24 45.7 °F 28.5 °F 30.38 in WNW 0.3 mph 7 mph 50.7% 0.00 in 424 W/m2
10:29 46.4 °F 28.1 °F 30.38 in WSW 1.8 mph 7 mph 48.5% 0.00 in 283 W/m2
10:34 46.8 °F 27.3 °F 30.38 in WSW 0.4 mph 7 mph 46.2% 0.00 in 255 W/m2
10:39 47.1 °F 26.8 °F 30.38 in WSW 1.8 mph 7 mph 44.8% 0.00 in 237 W/m2
10:44 47.2 °F 26.1 °F 30.38 in West 1.7 mph 9 mph 43.6% 0.00 in 139 W/m2
10:49 46.7 °F 26 °F 30.38 in West 1.2 mph 9 mph 44.2% 0.00 in 151 W/m2
10:54 46.2 °F 26.1 °F 30.37 in West 2.1 mph 9 mph 45% 0.00 in 325 W/m2
10:59 46.1 °F 26.6 °F 30.37 in WNW 0.7 mph 9 mph 46.2% 0.00 in 260 W/m2
11:04 46.3 °F 26.6 °F 30.37 in Calm   9 mph 45.9% 0.00 in 199 W/m2
11:09 46.5 °F 26.6 °F 30.37 in WNW 0.7 mph 5 mph 45.5% 0.00 in 113 W/m2
11:14 46.6 °F 26.8 °F 30.36 in WNW 1.1 mph 5 mph 45.6% 0.00 in 113 W/m2
11:19 46.8 °F 26.4 °F 30.36 in WNW 2.6 mph 7 mph 44.6% 0.00 in 137 W/m2
11:24 46.8 °F 25.8 °F 30.36 in WNW 1.1 mph 7 mph 43.6% 0.00 in 241 W/m2
11:29 46.8 °F 26.6 °F 30.36 in West 0.4 mph 7 mph 44.9% 0.00 in 250 W/m2
11:34 47.1 °F 26.7 °F 30.36 in West 1.4 mph 7 mph 44.6% 0.00 in 216 W/m2
11:39 47.3 °F 26.5 °F 30.36 in West 0.4 mph 5 mph 44% 0.00 in 199 W/m2
11:44 47.3 °F 26.5 °F 30.36 in West 0.3 mph 5 mph 44% 0.00 in 223 W/m2
11:49 47.2 °F 26.7 °F 30.36 in West 0.4 mph 5 mph 44.6% 0.00 in 234 W/m2
11:54 47.1 °F 26.7 °F 30.36 in West 0.5 mph 5 mph 44.6% 0.00 in 258 W/m2
11:59 47.3 °F 26.9 °F 30.35 in WNW 1.7 mph 7 mph 44.7% 0.00 in 132 W/m2
12:00 47.4 °F 26.6 °F 30.35 in Calm   7 mph 44% 0.00 in 132 W/m2
12:09 47.5 °F 26.7 °F 30.35 in West 0.8 mph 4 mph 43.9% 0.00 in 288 W/m2
12:14 47.5 °F 25.6 °F 30.35 in WNW 2.2 mph 7 mph 42% 0.00 in 287 W/m2
12:19 47.6 °F 26.1 °F 30.35 in WSW 1.1 mph 7 mph 42.8% 0.00 in 308 W/m2
12:24 47.7 °F 26 °F 30.35 in West 0.9 mph 7 mph 42.5% 0.00 in 385 W/m2
12:29 47.7 °F 26.1 °F 30.35 in WNW 1.7 mph 8 mph 42.6% 0.00 in 355 W/m2
12:34 47.7 °F 25.5 °F 30.35 in WSW 2.9 mph 8 mph 41.5% 0.00 in 348 W/m2
12:39 47.8 °F 26 °F 30.36 in SW 0.4 mph 6 mph 42.4% 0.00 in 329 W/m2
12:44 47.9 °F 25.3 °F 30.36 in WSW 1.1 mph 6 mph 40.9% 0.00 in 186 W/m2
12:49 47.8 °F 24.8 °F 30.35 in Calm   6 mph 40.2% 0.00 in 163 W/m2
12:54 47.5 °F 24.6 °F 30.35 in WSW 0.3 mph 6 mph 40.4% 0.00 in 95 W/m2
12:59 47.1 °F 25 °F 30.35 in WSW 0.2 mph 6 mph 41.6% 0.00 in 81 W/m2
13:04 46.9 °F 25.7 °F 30.35 in Calm   6 mph 43.2% 0.00 in 102 W/m2
13:09 46.7 °F 25.3 °F 30.34 in Calm   1 mph 42.8% 0.00 in 114 W/m2
13:14 46.6 °F 25.1 °F 30.34 in Calm   1 mph 42.7% 0.00 in 121 W/m2
13:19 46.5 °F 24.7 °F 30.34 in Calm   1 mph 42% 0.00 in 120 W/m2
13:24 46.5 °F 25.5 °F 30.34 in WSW 0.5 mph 3 mph 43.5% 0.00 in 111 W/m2
13:29 46.4 °F 24.8 °F 30.34 in WSW 1.1 mph 3 mph 42.4% 0.00 in 98 W/m2
13:34 46.3 °F 24.8 °F 30.34 in WSW 0.3 mph 3 mph 42.5% 0.00 in 84 W/m2
13:39 46.3 °F 24.7 °F 30.34 in Calm   3 mph 42.5% 0.00 in 109 W/m2
13:44 46.1 °F 24.3 °F 30.34 in WSW 0.1 mph 3 mph 42% 0.00 in 165 W/m2
13:49 46.1 °F 24.8 °F 30.34 in Calm   3 mph 42.9% 0.00 in 197 W/m2
13:54 46.1 °F 24.8 °F 30.34 in WSW 0.8 mph 5 mph 42.8% 0.00 in 197 W/m2
13:59 46.4 °F 25.3 °F 30.34 in WSW 0.2 mph 5 mph 43.3% 0.00 in 213 W/m2
14:04 46.8 °F 25.2 °F 30.34 in WSW 0.7 mph 5 mph 42.5% 0.00 in 137 W/m2
14:09 47 °F 25 °F 30.34 in Calm   4 mph 41.8% 0.00 in 128 W/m2
14:14 47.2 °F 25.3 °F 30.33 in Calm   4 mph 42% 0.00 in 125 W/m2
14:19 47.4 °F 25.6 °F 30.33 in WSW 0.4 mph 4 mph 42.3% 0.00 in 91 W/m2
14:24 47.4 °F 25.2 °F 30.33 in WSW 0.1 mph 4 mph 41.5% 0.00 in 63 W/m2
14:29 47.4 °F 24.8 °F 30.33 in Calm   4 mph 40.9% 0.00 in 86 W/m2
14:34 47.3 °F 24.2 °F 30.33 in Calm   4 mph 40% 0.00 in 54 W/m2
14:39 47.2 °F 24.3 °F 30.34 in WSW 0.1 mph 2 mph 40.2% 0.00 in 39 W/m2
14:44 47 °F 24 °F 30.33 in Calm   2 mph 40.1% 0.00 in 33 W/m2
14:49 46.9 °F 25.2 °F 30.33 in WSW 1.3 mph 6 mph 42.4% 0.00 in 35 W/m2
14:54 46.7 °F 25 °F 30.34 in WSW 0.1 mph 6 mph 42.3% 0.00 in 32 W/m2
14:59 46.5 °F 24.9 °F 30.34 in Calm   6 mph 42.5% 0.00 in 30 W/m2
15:04 46.3 °F 24.9 °F 30.34 in Calm   6 mph 42.7% 0.00 in 30 W/m2
15:09 46.1 °F 23.9 °F 30.34 in WSW 0.1 mph 2 mph 41.4% 0.00 in 30 W/m2
15:14 45.9 °F 24 °F 30.34 in Calm   2 mph 41.8% 0.00 in 28 W/m2
15:19 45.7 °F 24.2 °F 30.35 in Calm   2 mph 42.4% 0.00 in 21 W/m2
15:24 45.5 °F 24.4 °F 30.35 in Calm   2 mph 43% 0.00 in 21 W/m2
15:29 45.4 °F 24.1 °F 30.35 in Calm   2 mph 42.8% 0.00 in 18 W/m2
15:34 45.2 °F 24.5 °F 30.35 in Calm   2 mph 43.8% 0.00 in 16 W/m2
15:39 45 °F 24.4 °F 30.35 in Calm     44% 0.00 in 12 W/m2
15:44 44.8 °F 23.7 °F 30.35 in Calm     43.1% 0.00 in 11 W/m2
15:49 44.6 °F 23.9 °F 30.35 in Calm     43.7% 0.00 in 9 W/m2
15:54 44.4 °F 24.2 °F 30.35 in Calm     44.6% 0.00 in 7 W/m2
15:59 44.2 °F 24 °F 30.35 in Calm     44.5% 0.00 in 5 W/m2
16:00 44.1 °F 24.7 °F 30.34 in Calm     46% 0.00 in 5 W/m2
16:09 43.9 °F 24.7 °F 30.35 in Calm     46.4% 0.00 in 0 W/m2
16:14 43.9 °F 25 °F 30.35 in Calm     47% 0.00 in 0 W/m2
16:19 43.8 °F 24.9 °F 30.35 in Calm     46.9% 0.00 in 0 W/m2
16:24 43.7 °F 24.7 °F 30.35 in Calm     46.8% 0.00 in 0 W/m2
16:29 43.5 °F 24.2 °F 30.35 in Calm     46.2% 0.00 in 0 W/m2
16:34 43.4 °F 24.5 °F 30.35 in Calm     47% 0.00 in 0 W/m2
16:39 43.3 °F 24.9 °F 30.35 in Calm     47.8% 0.00 in 0 W/m2
16:44 43.3 °F 25.4 °F 30.35 in Calm     49% 0.00 in 0 W/m2
16:49 43.3 °F 25.2 °F 30.35 in Calm     48.5% 0.00 in 0 W/m2
16:54 43.1 °F 24.3 °F 30.35 in Calm     47.1% 0.00 in 0 W/m2
16:59 43 °F 24.2 °F 30.35 in Calm     47.1% 0.00 in 0 W/m2
17:04 42.8 °F 24.5 °F 30.35 in Calm     48% 0.00 in 0 W/m2
17:09 42.7 °F 26.2 °F 30.35 in Calm     51.7% 0.00 in 0 W/m2
17:14 42.7 °F 26.4 °F 30.35 in Calm     52.2% 0.00 in 0 W/m2
17:19 42.7 °F 26.6 °F 30.35 in Calm     52.5% 0.00 in 0 W/m2
17:24 42.8 °F 26 °F 30.34 in Calm     51.2% 0.00 in 0 W/m2
17:29 42.7 °F 25.1 °F 30.34 in WSW 0.3 mph 4 mph 49.3% 0.00 in 0 W/m2
17:34 42.6 °F 24.2 °F 30.34 in Calm   4 mph 47.9% 0.00 in 0 W/m2
17:39 42.5 °F 24.2 °F 30.35 in Calm   2 mph 47.9% 0.00 in 0 W/m2
17:44 42.5 °F 24.4 °F 30.34 in Calm   2 mph 48.5% 0.00 in 0 W/m2
17:49 42.4 °F 24.1 °F 30.34 in Calm   2 mph 48% 0.00 in 0 W/m2
17:54 42.2 °F 24.3 °F 30.34 in Calm   2 mph 48.7% 0.00 in 0 W/m2
17:59 42 °F 24.2 °F 30.34 in Calm   2 mph 49% 0.00 in 0 W/m2
18:04 41.8 °F 24.2 °F 30.34 in Calm   2 mph 49.3% 0.00 in 0 W/m2
18:09 41.5 °F 24.3 °F 30.34 in Calm     50% 0.00 in 0 W/m2
18:14 41.3 °F 24.4 °F 30.34 in Calm     50.7% 0.00 in 0 W/m2
18:19 41.1 °F 24.3 °F 30.34 in Calm     51% 0.00 in 0 W/m2
18:24 40.8 °F 24.1 °F 30.34 in Calm     51% 0.00 in 0 W/m2
18:29 40.6 °F 24.2 °F 30.34 in Calm     51.6% 0.00 in 0 W/m2
18:34 40.4 °F 24.2 °F 30.34 in Calm     52.2% 0.00 in 0 W/m2
18:39 40.2 °F 24 °F 30.34 in Calm     52.1% 0.00 in 0 W/m2
18:44 40 °F 24.3 °F 30.34 in Calm     53.1% 0.00 in 0 W/m2
18:49 39.8 °F 25 °F 30.35 in Calm     55% 0.00 in 0 W/m2
18:54 39.6 °F 24.8 °F 30.34 in Calm     55% 0.00 in 0 W/m2
18:59 39.4 °F 24.6 °F 30.34 in Calm     55% 0.00 in 0 W/m2
19:04 39.2 °F 24.4 °F 30.34 in Calm     54.9% 0.00 in 0 W/m2
19:09 39.1 °F 24.3 °F 30.34 in Calm     55.1% 0.00 in 0 W/m2
19:14 38.9 °F 25.1 °F 30.34 in Calm     57.1% 0.00 in 0 W/m2
19:19 38.8 °F 25.1 °F 30.34 in Calm     57.5% 0.00 in 0 W/m2
19:24 38.7 °F 25.1 °F 30.34 in Calm     57.8% 0.00 in 0 W/m2
19:29 38.6 °F 25 °F 30.34 in Calm     57.6% 0.00 in 0 W/m2
19:34 38.6 °F 25.7 °F 30.34 in Calm     59.3% 0.00 in 0 W/m2
19:39 38.6 °F 26.5 °F 30.34 in Calm     61.4% 0.00 in 0 W/m2
19:44 38.6 °F 27.1 °F 30.33 in Calm     62.9% 0.00 in 0 W/m2
19:49 38.5 °F 26.8 °F 30.33 in Calm     62.5% 0.00 in 0 W/m2
19:54 38.4 °F 26.8 °F 30.33 in Calm     62.7% 0.00 in 0 W/m2
19:59 38.4 °F 26.9 °F 30.33 in Calm     63% 0.00 in 0 W/m2
20:00 38.4 °F 27.3 °F 30.33 in Calm     64% 0.00 in 0 W/m2
20:09 38.3 °F 27.3 °F 30.33 in Calm     64.2% 0.00 in 0 W/m2
20:14 38.3 °F 27.6 °F 30.33 in Calm     65% 0.00 in 0 W/m2
20:19 38.3 °F 27.8 °F 30.33 in Calm     65.6% 0.00 in 0 W/m2
20:24 38.4 °F 28 °F 30.32 in Calm     66% 0.00 in 0 W/m2
20:29 38.4 °F 28.1 °F 30.32 in Calm     66% 0.00 in 0 W/m2
20:34 38.5 °F 28.4 °F 30.32 in Calm     66.7% 0.00 in 0 W/m2
20:39 38.5 °F 28.8 °F 30.32 in Calm     67.9% 0.00 in 0 W/m2
20:44 38.5 °F 28.9 °F 30.31 in Calm     68% 0.00 in 0 W/m2
20:49 38.5 °F 28.9 °F 30.31 in Calm     68% 0.00 in 0 W/m2
20:54 38.5 °F 28.9 °F 30.31 in Calm     68.1% 0.00 in 0 W/m2
20:59 38.6 °F 29.4 °F 30.31 in Calm     69.1% 0.00 in 0 W/m2
21:04 38.6 °F 29.3 °F 30.31 in Calm     69% 0.00 in 0 W/m2
21:09 38.6 °F 29.3 °F 30.31 in Calm     69% 0.00 in 0 W/m2
21:14 38.6 °F 29.2 °F 30.31 in Calm     68.7% 0.00 in 0 W/m2
21:19 38.6 °F 28.7 °F 30.31 in Calm     67.2% 0.00 in 0 W/m2
21:24 38.6 °F 28.6 °F 30.30 in Calm     67% 0.00 in 0 W/m2
21:29 38.6 °F 28.6 °F 30.30 in Calm     67% 0.00 in 0 W/m2
21:34 38.7 °F 28.7 °F 30.30 in Calm     67% 0.00 in 0 W/m2
21:39 38.7 °F 28.8 °F 30.30 in Calm     67.2% 0.00 in 0 W/m2
21:44 38.8 °F 29.1 °F 30.30 in Calm     68% 0.00 in 0 W/m2
21:49 38.8 °F 29.2 °F 30.29 in Calm     68% 0.00 in 0 W/m2
21:54 38.8 °F 29.1 °F 30.29 in Calm     67.7% 0.00 in 0 W/m2
21:59 38.8 °F 29 °F 30.29 in Calm     67.6% 0.00 in 0 W/m2
22:04 38.8 °F 29.4 °F 30.29 in Calm     68.6% 0.00 in 0 W/m2
22:09 38.9 °F 29.5 °F 30.29 in Calm     68.8% 0.00 in 0 W/m2
22:14 38.9 °F 29.2 °F 30.28 in Calm     68% 0.00 in 0 W/m2
22:19 38.9 °F 28.9 °F 30.28 in Calm     67% 0.00 in 0 W/m2
22:24 38.9 °F 28.9 °F 30.28 in Calm     67% 0.00 in 0 W/m2
22:29 39 °F 29.3 °F 30.27 in Calm     67.8% 0.00 in 0 W/m2
22:34 39.1 °F 29.4 °F 30.28 in Calm     68% 0.00 in 0 W/m2
22:39 39.1 °F 29.4 °F 30.28 in Calm     67.8% 0.00 in 0 W/m2
22:44 39.1 °F 29.4 °F 30.27 in Calm     67.8% 0.00 in 0 W/m2
22:49 39.1 °F 29 °F 30.27 in Calm     66.8% 0.00 in 0 W/m2
22:54 39.1 °F 28.5 °F 30.26 in Calm     65.5% 0.00 in 0 W/m2
22:59 39.1 °F 28.6 °F 30.26 in Calm     65.6% 0.00 in 0 W/m2
23:00 39.1 °F 28.7 °F 30.26 in Calm     66% 0.00 in 0 W/m2
23:09 39.1 °F 28.7 °F 30.27 in Calm     66% 0.00 in 0 W/m2
23:14 39.1 °F 29 °F 30.26 in Calm     66.8% 0.00 in 0 W/m2
23:19 39.1 °F 29.4 °F 30.26 in Calm     67.9% 0.00 in 0 W/m2
23:24 39.1 °F 29.1 °F 30.25 in Calm     67.2% 0.00 in 0 W/m2
23:29 39 °F 28.8 °F 30.25 in Calm     66.4% 0.00 in 0 W/m2
23:34 39 °F 29.2 °F 30.25 in Calm     67.4% 0.00 in 0 W/m2
23:39 39.1 °F 29.8 °F 30.25 in Calm     69% 0.00 in 0 W/m2
23:44 39.1 °F 29.8 °F 30.25 in Calm     69.1% 0.00 in 0 W/m2
23:49 39.1 °F 30.2 °F 30.24 in Calm     70% 0.00 in 0 W/m2
23:54 39.2 °F 30.4 °F 30.24 in Calm     70.6% 0.00 in 0 W/m2
23:59 39.2 °F 30.6 °F 30.24 in Calm     71% 0.00 in 0 W/m2
Hartford County Weather
Compliments of Weather Underground - 2 mb